createdAt,value
2023-03-02T00:01:54.225Z,7.82
2023-03-02T00:04:33.263Z,7.75
2023-03-02T00:07:04.169Z,9.02
2023-03-02T00:09:33.422Z,9.07
2023-03-02T00:12:01.497Z,7.75
2023-03-02T00:14:29.136Z,7.40
2023-03-02T00:16:57.012Z,7.62
2023-03-02T00:19:24.978Z,6.95
2023-03-02T00:21:52.627Z,6.93
2023-03-02T00:24:20.571Z,6.97
2023-03-02T00:26:48.355Z,7.22
2023-03-02T00:29:15.999Z,6.97
2023-03-02T00:31:44.122Z,7.05
2023-03-02T00:34:11.829Z,7.35
2023-03-02T00:36:40.046Z,7.55
2023-03-02T00:39:08.596Z,7.32
2023-03-02T00:41:37.783Z,5.65
2023-03-02T00:44:05.701Z,6.87
2023-03-02T00:46:33.917Z,6.93
2023-03-02T00:49:02.021Z,7.37
2023-03-02T00:51:29.854Z,7.00
2023-03-02T00:53:57.781Z,6.85
2023-03-02T00:56:25.291Z,6.95
2023-03-02T00:58:53.041Z,7.28
2023-03-02T01:01:21.116Z,6.55
2023-03-02T01:03:49.076Z,6.60
2023-03-02T01:06:19.279Z,6.43
2023-03-02T01:08:47.623Z,5.93
2023-03-02T01:11:17.561Z,7.05
2023-03-02T01:13:46.072Z,6.70
2023-03-02T01:16:14.593Z,6.68
2023-03-02T01:18:43.008Z,7.25
2023-03-02T01:21:15.645Z,6.75
2023-03-02T01:23:43.727Z,6.25
2023-03-02T01:26:11.389Z,6.22
2023-03-02T01:28:39.123Z,6.05
2023-03-02T01:31:07.279Z,6.60
2023-03-02T01:33:34.909Z,6.57
2023-03-02T01:36:02.750Z,6.57
2023-03-02T01:38:30.779Z,5.95
2023-03-02T01:40:58.795Z,5.87
2023-03-02T01:43:26.576Z,6.18
2023-03-02T01:45:59.095Z,6.10
2023-03-02T01:48:48.039Z,6.35
2023-03-02T01:51:23.229Z,6.68
2023-03-02T01:53:55.618Z,5.78
2023-03-02T01:56:31.499Z,6.28
2023-03-02T01:59:03.670Z,6.28
2023-03-02T02:01:34.573Z,6.35
2023-03-02T02:04:02.926Z,6.18
2023-03-02T02:07:03.409Z,6.22
2023-03-02T02:09:35.419Z,6.00
2023-03-02T02:12:03.687Z,6.35
2023-03-02T02:14:31.816Z,5.22
2023-03-02T02:16:59.668Z,6.25
2023-03-02T02:19:42.460Z,6.50
2023-03-02T02:22:12.055Z,6.40
2023-03-02T02:24:52.489Z,6.43
2023-03-02T02:27:20.496Z,6.15
2023-03-02T02:29:52.629Z,6.25
2023-03-02T02:32:30.817Z,6.68
2023-03-02T02:35:05.177Z,6.18
2023-03-02T02:37:38.640Z,5.65
2023-03-02T02:40:12.567Z,5.93
2023-03-02T02:42:48.618Z,5.50
2023-03-02T02:47:50.159Z,5.90
2023-03-02T02:50:32.265Z,6.50
2023-03-02T02:53:20.405Z,5.87
2023-03-02T02:55:52.043Z,6.75
2023-03-02T02:58:56.701Z,5.75
2023-03-02T03:01:26.298Z,6.45
2023-03-02T03:04:02.286Z,6.30
2023-03-02T03:06:42.403Z,6.22
2023-03-02T03:09:12.479Z,6.18
2023-03-02T03:11:43.714Z,6.60
2023-03-02T03:14:15.455Z,6.25
2023-03-02T03:16:46.520Z,5.62
2023-03-02T03:19:18.387Z,6.20
2023-03-02T03:21:49.739Z,5.97
2023-03-02T03:24:18.643Z,5.75
2023-03-02T03:26:46.798Z,5.65
2023-03-02T03:29:15.792Z,3.92
2023-03-02T03:31:44.490Z,5.95
2023-03-02T03:34:12.406Z,5.65
2023-03-02T03:36:40.152Z,6.53
2023-03-02T03:39:08.204Z,5.70
2023-03-02T03:41:36.317Z,5.28
2023-03-02T03:44:04.419Z,5.82
2023-03-02T03:46:34.424Z,7.25
2023-03-02T03:49:03.500Z,6.15
2023-03-02T03:51:35.393Z,5.97
2023-03-02T03:54:05.575Z,6.40
2023-03-02T03:56:36.932Z,5.15
2023-03-02T03:59:07.509Z,6.05
2023-03-02T04:01:41.877Z,5.65
2023-03-02T04:04:17.247Z,6.18
2023-03-02T04:06:45.072Z,6.00
2023-03-02T04:09:15.440Z,6.75
2023-03-02T04:11:45.135Z,6.82
2023-03-02T04:14:14.273Z,7.00
2023-03-02T04:16:42.091Z,6.50
2023-03-02T04:19:10.493Z,5.75
2023-03-02T04:21:41.615Z,6.43
2023-03-02T04:24:10.111Z,6.50
2023-03-02T04:26:40.570Z,6.10
2023-03-02T04:29:09.418Z,5.53
2023-03-02T04:31:38.063Z,6.43
2023-03-02T04:34:07.940Z,5.97
2023-03-02T04:36:39.022Z,6.00
2023-03-02T04:41:35.974Z,5.87
2023-03-02T04:44:03.683Z,6.12
2023-03-02T04:46:32.090Z,6.47
2023-03-02T04:49:00.083Z,6.80
2023-03-02T04:51:38.418Z,6.90
2023-03-02T04:54:11.627Z,6.82
2023-03-02T04:56:39.239Z,7.93
2023-03-02T04:59:07.369Z,8.15
2023-03-02T05:01:35.069Z,7.32
2023-03-02T05:04:03.203Z,7.30
2023-03-02T05:06:31.414Z,7.65
2023-03-02T05:09:00.231Z,7.87
2023-03-02T05:11:28.426Z,7.78
2023-03-02T05:13:59.489Z,8.00
2023-03-02T05:16:29.450Z,8.43
2023-03-02T05:18:58.943Z,8.15
2023-03-02T05:21:27.247Z,8.27
2023-03-02T05:23:55.014Z,8.00
2023-03-02T05:26:23.509Z,8.27
2023-03-02T05:28:53.891Z,7.97
2023-03-02T05:31:28.643Z,8.50
2023-03-02T05:33:56.602Z,8.32
2023-03-02T05:36:24.215Z,7.60
2023-03-02T05:38:51.937Z,8.50
2023-03-02T05:41:20.003Z,8.13
2023-03-02T05:43:47.802Z,8.10
2023-03-02T05:46:17.376Z,8.20
2023-03-02T05:48:46.599Z,8.30
2023-03-02T05:51:14.196Z,8.38
2023-03-02T05:53:41.890Z,8.32
2023-03-02T05:56:10.094Z,7.97
2023-03-02T05:58:37.935Z,7.95
2023-03-02T06:01:13.558Z,8.10
2023-03-02T06:03:43.747Z,8.82
2023-03-02T06:06:15.206Z,6.32
2023-03-02T06:08:44.487Z,6.97
2023-03-02T06:11:12.797Z,8.07
2023-03-02T06:13:40.603Z,7.47
2023-03-02T06:16:09.108Z,7.97
2023-03-02T06:18:39.745Z,8.05
2023-03-02T06:21:09.360Z,7.45
2023-03-02T06:23:37.018Z,8.55
2023-03-02T06:26:10.024Z,8.60
2023-03-02T06:28:51.347Z,8.15
2023-03-02T06:31:21.387Z,8.85
2023-03-02T06:33:49.859Z,7.80
2023-03-02T06:36:17.956Z,7.55
2023-03-02T06:38:45.891Z,8.57
2023-03-02T06:41:13.796Z,9.27
2023-03-02T06:43:41.604Z,13.38
2023-03-02T06:46:09.351Z,8.70
2023-03-02T06:48:40.133Z,7.87
2023-03-02T06:51:08.375Z,7.35
2023-03-02T06:53:36.116Z,8.57
2023-03-02T06:56:04.430Z,8.25
2023-03-02T06:58:32.196Z,8.75
2023-03-02T07:01:00.047Z,10.30
2023-03-02T07:03:28.063Z,9.80
2023-03-02T07:05:55.891Z,9.77
2023-03-02T07:08:24.044Z,10.13
2023-03-02T07:10:52.006Z,8.95
2023-03-02T07:13:20.088Z,9.73
2023-03-02T07:15:48.046Z,8.05
2023-03-02T07:18:16.126Z,8.38
2023-03-02T07:20:44.464Z,9.05
2023-03-02T07:23:12.360Z,9.07
2023-03-02T07:25:40.230Z,8.90
2023-03-02T07:28:07.896Z,11.65
2023-03-02T07:30:35.691Z,9.60
2023-03-02T07:33:03.651Z,10.27
2023-03-02T07:35:31.253Z,8.73
2023-03-02T07:37:58.871Z,8.75
2023-03-02T07:40:27.088Z,9.82
2023-03-02T07:42:54.670Z,10.02
2023-03-02T07:45:24.941Z,8.90
2023-03-02T07:47:53.047Z,9.32
2023-03-02T07:50:21.159Z,9.68
2023-03-02T07:52:48.838Z,9.82
2023-03-02T07:55:16.909Z,9.38
2023-03-02T07:57:44.668Z,10.68
2023-03-02T08:00:13.045Z,10.35
2023-03-02T08:02:42.630Z,9.05
2023-03-02T08:05:12.242Z,9.77
2023-03-02T08:07:44.053Z,9.98
2023-03-02T08:10:12.450Z,8.93
2023-03-02T08:12:45.562Z,9.80
2023-03-02T08:15:13.465Z,9.73
2023-03-02T08:17:41.098Z,10.40
2023-03-02T08:20:12.124Z,10.05
2023-03-02T08:22:41.960Z,9.65
2023-03-02T08:25:09.788Z,9.60
2023-03-02T08:27:40.260Z,9.70
2023-03-02T08:30:10.959Z,9.38
2023-03-02T08:32:45.734Z,9.45
2023-03-02T08:35:13.709Z,8.98
2023-03-02T08:37:41.269Z,9.60
2023-03-02T08:40:12.747Z,9.07
2023-03-02T08:42:42.988Z,10.67
2023-03-02T08:45:10.780Z,9.48
2023-03-02T08:47:38.436Z,10.05
2023-03-02T08:50:09.613Z,10.77
2023-03-02T08:52:37.560Z,10.25
2023-03-02T08:55:05.918Z,10.27
2023-03-02T08:57:34.858Z,9.75
2023-03-02T09:00:08.660Z,9.95
2023-03-02T09:02:36.551Z,9.60
2023-03-02T09:05:04.425Z,9.93
2023-03-02T09:07:32.116Z,10.73
2023-03-02T09:10:01.208Z,9.82
2023-03-02T09:12:31.839Z,11.43
2023-03-02T09:14:59.628Z,10.80
2023-03-02T09:17:27.496Z,11.45
2023-03-02T09:19:55.081Z,11.45
2023-03-02T09:22:22.841Z,11.40
2023-03-02T09:24:50.861Z,11.52
2023-03-02T09:27:18.548Z,11.15
2023-03-02T09:29:46.216Z,10.80
2023-03-02T09:32:16.144Z,10.60
2023-03-02T09:34:43.913Z,11.63
2023-03-02T09:37:11.484Z,10.60
2023-03-02T09:39:39.882Z,10.75
2023-03-02T09:42:16.295Z,10.05
2023-03-02T09:45:14.573Z,9.75
2023-03-02T09:48:10.917Z,9.88
2023-03-02T09:50:45.847Z,9.52
2023-03-02T09:53:38.394Z,9.63
2023-03-02T09:56:14.862Z,9.40
2023-03-02T09:58:49.548Z,8.85
2023-03-02T10:01:30.132Z,8.95
2023-03-02T10:04:08.316Z,9.25
2023-03-02T10:06:36.056Z,8.95
2023-03-02T10:09:03.966Z,8.77
2023-03-02T10:12:32.954Z,9.65
2023-03-02T10:15:19.230Z,8.35
2023-03-02T10:17:53.063Z,8.00
2023-03-02T10:20:34.148Z,9.52
2023-03-02T10:23:28.650Z,8.98
2023-03-02T10:26:11.418Z,9.05
2023-03-02T10:29:10.888Z,8.23
2023-03-02T10:31:41.311Z,8.20
2023-03-02T10:34:11.666Z,8.63
2023-03-02T10:36:43.203Z,8.20
2023-03-02T10:39:15.365Z,8.88
2023-03-02T10:42:06.891Z,7.87
2023-03-02T10:44:39.701Z,7.87
2023-03-02T10:47:08.663Z,8.38
2023-03-02T10:49:42.030Z,8.75
2023-03-02T10:52:15.286Z,8.50
2023-03-02T10:54:43.005Z,8.13
2023-03-02T10:57:23.064Z,8.25
2023-03-02T11:02:27.618Z,6.43
2023-03-02T11:04:57.349Z,7.28
2023-03-02T11:07:28.617Z,7.87
2023-03-02T11:10:02.014Z,7.20
2023-03-02T11:12:32.004Z,6.53
2023-03-02T11:15:19.658Z,7.00
2023-03-02T11:18:29.101Z,6.85
2023-03-02T11:21:04.603Z,6.70
2023-03-02T11:24:06.108Z,7.10
2023-03-02T11:26:45.119Z,6.32
2023-03-02T11:29:39.048Z,6.00
2023-03-02T11:32:25.636Z,6.12
2023-03-02T11:35:08.972Z,6.95
2023-03-02T11:37:42.729Z,6.15
2023-03-02T11:40:23.884Z,6.20
2023-03-02T11:42:52.891Z,5.75
2023-03-02T11:45:24.276Z,5.80
2023-03-02T11:48:03.303Z,6.45
2023-03-02T11:50:37.642Z,5.90
2023-03-02T11:53:12.109Z,5.65
2023-03-02T11:55:50.733Z,6.15
2023-03-02T11:58:21.538Z,5.45
2023-03-02T12:00:51.150Z,5.28
2023-03-02T12:03:22.477Z,5.80
2023-03-02T12:05:52.845Z,5.28
2023-03-02T12:08:20.727Z,5.28
2023-03-02T12:11:25.740Z,4.57
2023-03-02T12:14:04.752Z,5.05
2023-03-02T12:16:36.157Z,5.35
2023-03-02T12:19:16.507Z,5.45
2023-03-02T12:21:57.224Z,4.95
2023-03-02T12:24:28.450Z,5.10
2023-03-02T12:27:03.745Z,6.20
2023-03-02T12:29:44.276Z,6.70
2023-03-02T12:32:26.265Z,4.97
2023-03-02T12:35:02.876Z,5.00
2023-03-02T12:37:49.587Z,5.25
2023-03-02T12:40:35.756Z,4.57
2023-03-02T12:43:24.657Z,4.97
2023-03-02T12:46:14.390Z,4.97
2023-03-02T12:48:45.808Z,4.40
2023-03-02T12:51:23.754Z,4.53
2023-03-02T12:54:22.476Z,4.40
2023-03-02T12:56:50.960Z,6.10
2023-03-02T12:59:28.896Z,5.00
2023-03-02T13:02:16.415Z,4.70
2023-03-02T13:04:44.876Z,4.25
2023-03-02T13:07:19.557Z,4.30
2023-03-02T13:09:57.234Z,4.93
2023-03-02T13:12:29.501Z,5.30
2023-03-02T13:14:59.240Z,5.70
2023-03-02T13:17:32.637Z,5.60
2023-03-02T13:20:03.612Z,5.82
2023-03-02T13:22:32.188Z,5.50
2023-03-02T13:25:08.206Z,5.37
2023-03-02T13:27:36.167Z,5.10
2023-03-02T13:30:28.596Z,5.15
2023-03-02T13:33:01.701Z,5.65
2023-03-02T13:35:32.959Z,5.18
2023-03-02T13:40:37.793Z,4.78
2023-03-02T13:43:23.908Z,5.50
2023-03-02T13:46:07.807Z,5.10
2023-03-02T13:48:35.784Z,5.93
2023-03-02T13:51:14.216Z,6.20
2023-03-02T13:53:53.384Z,5.90
2023-03-02T13:56:29.524Z,5.53
2023-03-02T13:58:57.800Z,5.87
2023-03-02T14:01:26.429Z,7.30
2023-03-02T14:03:57.310Z,6.50
2023-03-02T14:06:28.860Z,6.37
2023-03-02T14:08:56.849Z,5.60
2023-03-02T14:11:24.824Z,6.15
2023-03-02T14:13:54.606Z,5.85
2023-03-02T14:16:24.227Z,5.87
2023-03-02T14:18:56.294Z,5.68
2023-03-02T14:21:25.782Z,5.75
2023-03-02T14:23:54.312Z,6.10
2023-03-02T14:26:31.300Z,5.62
2023-03-02T14:29:26.098Z,5.97
2023-03-02T14:31:55.666Z,6.00
2023-03-02T14:34:23.841Z,5.95
2023-03-02T14:36:56.219Z,6.32
2023-03-02T14:39:37.635Z,6.82
2023-03-02T14:42:10.832Z,6.65
2023-03-02T14:44:38.682Z,6.43
2023-03-02T14:47:07.232Z,6.22
2023-03-02T14:49:35.060Z,6.25
2023-03-02T14:52:12.108Z,7.03
2023-03-02T14:55:01.974Z,6.90
2023-03-02T14:57:35.410Z,6.50
2023-03-02T15:00:05.132Z,7.60
2023-03-02T15:02:36.110Z,6.30
2023-03-02T15:05:03.964Z,6.93
2023-03-02T15:07:31.730Z,6.62
2023-03-02T15:10:02.262Z,6.70
2023-03-02T15:12:30.143Z,7.18
2023-03-02T15:14:57.686Z,7.40
2023-03-02T15:17:25.611Z,6.62
2023-03-02T15:19:53.747Z,6.57
2023-03-02T15:22:21.385Z,6.68
2023-03-02T15:24:49.345Z,6.20
2023-03-02T15:27:17.405Z,5.87
2023-03-02T15:29:47.215Z,6.45
2023-03-02T15:32:15.941Z,6.10
2023-03-02T15:34:43.920Z,6.68
2023-03-02T15:37:12.743Z,6.22
2023-03-02T15:39:44.525Z,5.47
2023-03-02T15:42:13.896Z,5.50
2023-03-02T15:44:42.282Z,6.55
2023-03-02T15:47:11.119Z,6.75
2023-03-02T15:49:38.882Z,6.68
2023-03-02T15:52:06.728Z,6.65
2023-03-02T15:54:34.281Z,7.53
2023-03-02T15:57:01.913Z,6.85
2023-03-02T15:59:31.249Z,7.25
2023-03-02T16:02:02.139Z,8.82
2023-03-02T16:04:32.005Z,8.90
2023-03-02T16:07:00.120Z,6.60
2023-03-02T16:09:29.051Z,7.35
2023-03-02T16:11:57.529Z,7.60
2023-03-02T16:14:25.230Z,8.98
2023-03-02T16:16:53.195Z,47.42
2023-03-02T16:19:21.516Z,18.95
2023-03-02T16:21:49.402Z,11.45
2023-03-02T16:24:17.409Z,10.85
2023-03-02T16:26:45.765Z,10.07
2023-03-02T16:29:14.006Z,19.90
2023-03-02T16:31:45.218Z,11.65
2023-03-02T16:34:14.107Z,13.25
2023-03-02T16:36:42.482Z,21.42
2023-03-02T16:39:12.080Z,13.73
2023-03-02T16:41:42.423Z,26.40
2023-03-02T16:44:11.722Z,13.30
2023-03-02T16:46:40.280Z,20.50
2023-03-02T16:49:08.954Z,23.35
2023-03-02T16:51:37.373Z,30.45
2023-03-02T16:54:05.441Z,25.35
2023-03-02T16:56:33.570Z,19.77
2023-03-02T16:59:01.507Z,17.42
2023-03-02T17:01:29.548Z,18.15
2023-03-02T17:03:57.804Z,18.10
2023-03-02T17:06:25.746Z,23.87
2023-03-02T17:08:54.090Z,21.55
2023-03-02T17:11:23.116Z,22.30
2023-03-02T17:13:52.585Z,18.70
2023-03-02T17:16:20.817Z,25.70
2023-03-02T17:18:48.859Z,44.15
2023-03-02T17:21:17.237Z,36.88
2023-03-02T17:23:48.077Z,40.22
2023-03-02T17:28:45.077Z,26.15
2023-03-02T17:31:13.512Z,23.30
2023-03-02T17:33:41.645Z,27.08
2023-03-02T17:36:12.148Z,23.60
2023-03-02T17:38:40.792Z,21.92
2023-03-02T17:41:10.823Z,19.65
2023-03-02T17:43:41.477Z,28.83
2023-03-02T17:46:14.795Z,26.40
2023-03-02T17:48:43.526Z,29.90
2023-03-02T17:51:14.792Z,28.92
2023-03-02T17:53:48.185Z,31.02
2023-03-02T17:56:19.186Z,35.35
2023-03-02T17:58:47.317Z,29.63
2023-03-02T18:01:15.942Z,31.17
2023-03-02T18:03:45.240Z,29.33
2023-03-02T18:06:14.134Z,26.50
2023-03-02T18:08:41.677Z,27.50
2023-03-02T18:11:10.089Z,26.52
2023-03-02T18:13:38.081Z,26.12
2023-03-02T18:16:06.562Z,24.80
2023-03-02T18:18:34.836Z,25.52
2023-03-02T18:21:02.992Z,24.58
2023-03-02T18:23:31.478Z,24.58
2023-03-02T18:25:59.496Z,25.42
2023-03-02T18:28:27.482Z,27.23
2023-03-02T18:30:55.450Z,26.48
2023-03-02T18:33:23.551Z,27.37
2023-03-02T18:35:52.265Z,24.83
2023-03-02T18:38:20.236Z,25.08
2023-03-02T18:40:48.407Z,23.12
2023-03-02T18:43:16.765Z,17.42
2023-03-02T18:45:44.356Z,17.58
2023-03-02T18:48:12.731Z,18.17
2023-03-02T18:50:40.468Z,20.42
2023-03-02T18:53:08.703Z,21.52
2023-03-02T18:55:37.264Z,22.05
2023-03-02T18:58:07.455Z,23.40
2023-03-02T19:00:36.294Z,25.88
2023-03-02T19:03:04.417Z,33.80
2023-03-02T19:05:32.441Z,36.75
2023-03-02T19:08:00.439Z,37.33
2023-03-02T19:10:29.130Z,35.53
2023-03-02T19:12:56.741Z,34.47
2023-03-02T19:15:25.007Z,34.22
2023-03-02T19:17:53.552Z,35.92
2023-03-02T19:20:22.217Z,33.42
2023-03-02T19:22:50.492Z,31.73
2023-03-02T19:25:18.718Z,31.45
2023-03-02T19:27:48.199Z,31.02
2023-03-02T19:30:24.847Z,31.10
2023-03-02T19:32:54.281Z,28.90
2023-03-02T19:35:25.214Z,28.35
2023-03-02T19:37:53.608Z,27.17
2023-03-02T19:40:24.788Z,26.65
2023-03-02T19:45:29.973Z,26.80
2023-03-02T19:47:59.972Z,28.12
2023-03-02T19:50:29.555Z,32.80
2023-03-02T19:52:59.096Z,64.18
2023-03-02T19:55:27.324Z,38.03
2023-03-02T19:57:59.631Z,25.55
2023-03-02T20:00:31.759Z,26.10
2023-03-02T20:03:00.557Z,26.17
2023-03-02T20:05:28.572Z,30.35
2023-03-02T20:07:56.700Z,28.95
2023-03-02T20:10:31.147Z,30.40
2023-03-02T20:13:00.714Z,33.83
2023-03-02T20:15:31.053Z,34.72
2023-03-02T20:18:02.485Z,37.67
2023-03-02T20:20:33.094Z,35.67
2023-03-02T20:23:01.100Z,40.60
2023-03-02T20:25:29.671Z,37.92
2023-03-02T20:27:58.867Z,41.17
2023-03-02T20:30:31.637Z,46.47
2023-03-02T20:33:00.890Z,64.07
2023-03-02T20:35:32.780Z,57.62
2023-03-02T20:38:05.467Z,73.07
2023-03-02T20:40:34.225Z,50.22
2023-03-02T20:43:02.454Z,39.13
2023-03-02T20:45:30.436Z,38.70
2023-03-02T20:47:59.125Z,50.63
2023-03-02T20:50:30.807Z,46.58
2023-03-02T20:52:59.486Z,36.17
2023-03-02T20:55:28.725Z,31.87
2023-03-02T20:57:57.279Z,31.00
2023-03-02T21:00:28.110Z,30.25
2023-03-02T21:02:57.260Z,30.70
2023-03-02T21:05:26.969Z,30.55
2023-03-02T21:07:55.507Z,32.97
2023-03-02T21:10:29.856Z,32.85
2023-03-02T21:12:57.811Z,33.08
2023-03-02T21:15:27.260Z,31.77
2023-03-02T21:17:55.900Z,30.35
2023-03-02T21:20:31.328Z,29.90
2023-03-02T21:22:59.840Z,50.92
2023-03-02T21:25:28.333Z,39.63
2023-03-02T21:27:57.238Z,34.95
2023-03-02T21:30:35.738Z,34.80
2023-03-02T21:33:03.612Z,35.95
2023-03-02T21:35:31.703Z,43.90
2023-03-02T21:38:03.770Z,32.13
2023-03-02T21:40:45.890Z,30.25
2023-03-02T21:43:16.235Z,30.55
2023-03-02T21:45:44.497Z,32.53
2023-03-02T21:48:13.926Z,30.70
2023-03-02T21:50:42.222Z,28.00
2023-03-02T21:53:10.250Z,30.48
2023-03-02T21:55:38.103Z,52.03
2023-03-02T21:58:06.211Z,38.30
2023-03-02T22:00:37.522Z,33.65
2023-03-02T22:03:06.800Z,31.90
2023-03-02T22:05:34.493Z,35.45
2023-03-02T22:08:02.194Z,35.22
2023-03-02T22:10:46.098Z,35.83
2023-03-02T22:13:14.031Z,31.80
2023-03-02T22:15:42.139Z,32.53
2023-03-02T22:18:15.395Z,35.47
2023-03-02T22:20:47.359Z,36.80
2023-03-02T22:25:44.441Z,33.95
2023-03-02T22:28:18.484Z,38.90
2023-03-02T22:30:48.016Z,41.65
2023-03-02T22:33:25.212Z,40.63
2023-03-02T22:35:59.854Z,40.50
2023-03-02T22:38:30.183Z,39.47
2023-03-02T22:40:58.257Z,38.33
2023-03-02T22:43:30.971Z,39.65
2023-03-02T22:46:15.890Z,39.60
2023-03-02T22:48:46.286Z,38.67
2023-03-02T22:51:24.262Z,38.72
2023-03-02T22:53:54.360Z,39.53
2023-03-02T22:56:52.731Z,37.42
2023-03-02T22:59:24.498Z,36.92
2023-03-02T23:02:08.151Z,40.08
2023-03-02T23:04:37.997Z,34.33
2023-03-02T23:07:19.400Z,25.62
2023-03-02T23:09:47.952Z,27.83
2023-03-02T23:12:22.030Z,25.85
2023-03-02T23:14:51.201Z,25.25
2023-03-02T23:17:34.218Z,24.50
2023-03-02T23:20:03.079Z,25.42
2023-03-02T23:22:31.629Z,24.85
2023-03-02T23:24:59.432Z,24.52
2023-03-02T23:27:27.844Z,24.95
2023-03-02T23:29:55.876Z,24.33
2023-03-02T23:32:23.642Z,23.80
2023-03-02T23:34:51.373Z,25.58
2023-03-02T23:37:19.354Z,23.92
2023-03-02T23:39:46.908Z,22.67
2023-03-02T23:42:14.735Z,21.42
2023-03-02T23:44:42.643Z,20.70
2023-03-02T23:47:10.179Z,20.02
2023-03-02T23:49:37.859Z,22.00
2023-03-02T23:52:06.093Z,19.98
2023-03-02T23:54:33.877Z,20.62
2023-03-02T23:57:01.513Z,18.50
2023-03-02T23:59:29.500Z,18.55
